Hamden, Ohio
Current Conditions -  °F | °C
As of 10:55 AM on Friday 21 Nov 2014 (Local Time) from KUNI Reporting Station
Clear Clear  
Wind Chill: -3°   Ceiling: Unl
Heat Index: -3°   Visibility: 10mi
Dew Point: -11°   Wind: 0mph
Humidity: 54%   Direction: NA
Pressure: 30.53"   Gusts: NA
Location:  39.16°N, 82.53°W
Report Text: KUNI 211555Z AUTO 00000KT 10SM CLR M03/M11 A3053 RMK AO2 T10271108
Loading
Personal Weather Stations






























Interactive Weather Map New forecast layout! Learn more

10-Day Weather Forecast

Advertisements
Track Severe Weather on mobile